PS23 weather

Windy Hill Airport
Curwensville, Pennsylvania, United States

Public forecast

Using degrees Fahrenheit for public forecast. Weather courtesy of forecast.io.

METAR (pilot weather report)

Closest report is Bedford County Airport, 1.6 nm (3.0 km) E. Retrieved 2019/05/24 10:35 UTC (0 seconds ago):

KHMZ 241035Z AUTO 31009G15KT 10SM CLR 15/08 A3007 RMK AO2 T01490082

TAF (pilot weather forecast)

Closest forecast is Altoona Blair County Airport, 16.4 nm (30.4 km) NE. Retrieved 2019/05/24 06:48 UTC (4 hours ago):

TAF KAOO 240546Z 2406/2506 31011G19KT P6SM FEW022 BKN050 OVC100 FM241400 31012G20KT P6SM SCT050 FM250300 02003KT P6SM OVC100